Thunder radar more information blitzortung!


Radar de pluja more information rain snow radar


Visita la nostra xarxa de llocs de meteo:

Template documentation
and downloads

And another site



No particular awareness of the weather is required.    There are no Weather-warnings

Pagina Historial Weather Underground text

Diari Resum Novembre 24, 2017 Unitats:  Tant    Imperial   Mètric
« Previous Dia
SegĂźent Dia »
Diari Setmana Mensual Anual Personalitzada
  Maxima: Minima: Media:
Temperatura: 71.1 °F /  21.7 °C 45.3 °F /  7.4 °C 59.4 °F /  15.2 °C
Punt de rosada: 48.7 °F /  9.3 °C 35.8 °F /  2.1 °C 41 °F /  5 °C
Humitat: 81 % 41 % 51 %
Wind Speed: 6.9 mph /  11.1 km/h - 1.9 mph /  3.1 km/h
RĂ fegues de vent: 6.9 mph /  11.1 km/h - -
Vent:- - SW
Pression baro: 30.2 in /  1020.9 hPa 30 in /  1015.8 hPa -
Precipitacions: 0 in /  0.0 mm    
Historical Graphs
 
 
Dades de taula per Novembre 24, 2017
Temps Temperatura Punt de rosada Pression baro Vent Wind Speed RĂ fegues de vent Humitat Rainfall Rate (Hourly)
00:05 45.3 °F /  7.4 °C 35.8 °F /  2.1 °C 30.1 in /  1018.8 hPa WSW 2 mph /  3.2 km/h 3 mph /  4.8 km/h 69 % 0 in /  0.0 mm
00:09 48.4 °F /  9.1 °C 42.8 °F /  6.0 °C 30.1 in /  1019.9 hPa WSW 2.4 mph /  3.9 km/h 2.4 mph /  3.9 km/h 81 % 0 in /  0.0 mm
00:15 45.9 °F /  7.7 °C 36.3 °F /  2.4 °C 30.1 in /  1018.8 hPa WSW 2 mph /  3.2 km/h 3 mph /  4.8 km/h 69 % 0 in /  0.0 mm
00:25 45.7 °F /  7.6 °C 36.1 °F /  2.3 °C 30.1 in /  1019.9 hPa WSW 2 mph /  3.2 km/h 3 mph /  4.8 km/h 69 % 0 in /  0.0 mm
00:35 46 °F /  7.8 °C 36.3 °F /  2.4 °C 30.1 in /  1019.9 hPa Calm   1 mph /  1.6 km/h 69 % 0 in /  0.0 mm
00:45 47.3 °F /  8.5 °C 37.2 °F /  2.9 °C 30.1 in /  1018.8 hPa North 1 mph /  1.6 km/h 2 mph /  3.2 km/h 68 % 0 in /  0.0 mm
01:05 48.2 °F /  9.0 °C 37.4 °F /  3.0 °C 30.1 in /  1019.9 hPa North 1 mph /  1.6 km/h 1 mph /  1.6 km/h 66 % 0 in /  0.0 mm
01:15 48.2 °F /  9.0 °C 37 °F /  2.8 °C 30.1 in /  1019.9 hPa Calm   2 mph /  3.2 km/h 65 % 0 in /  0.0 mm
01:25 48 °F /  8.9 °C 36.9 °F /  2.7 °C 30.1 in /  1019.9 hPa West 1 mph /  1.6 km/h 1 mph /  1.6 km/h 65 % 0 in /  0.0 mm
01:35 47.8 °F /  8.8 °C 37 °F /  2.8 °C 30.1 in /  1019.9 hPa WSW 1 mph /  1.6 km/h 1 mph /  1.6 km/h 66 % 0 in /  0.0 mm
01:45 48.2 °F /  9.0 °C 37 °F /  2.8 °C 30.1 in /  1019.9 hPa Calm   2 mph /  3.2 km/h 65 % 0 in /  0.0 mm
01:55 48.2 °F /  9.0 °C 37 °F /  2.8 °C 30.1 in /  1019.9 hPa NW 1 mph /  1.6 km/h 2 mph /  3.2 km/h 65 % 0 in /  0.0 mm
02:05 48.4 °F /  9.1 °C 37.2 °F /  2.9 °C 30.1 in /  1019.9 hPa NW 1 mph /  1.6 km/h 2 mph /  3.2 km/h 65 % 0 in /  0.0 mm
02:15 48.6 °F /  9.2 °C 36.9 °F /  2.7 °C 30.1 in /  1019.9 hPa Calm   1 mph /  1.6 km/h 64 % 0 in /  0.0 mm
02:25 48.6 °F /  9.2 °C 37.2 °F /  2.9 °C 30.1 in /  1019.9 hPa NW 1 mph /  1.6 km/h 2 mph /  3.2 km/h 65 % 0 in /  0.0 mm
02:35 48 °F /  8.9 °C 37.2 °F /  2.9 °C 30.1 in /  1019.9 hPa North 2 mph /  3.2 km/h 3 mph /  4.8 km/h 66 % 0 in /  0.0 mm
02:45 48 °F /  8.9 °C 37.2 °F /  2.9 °C 30.1 in /  1019.9 hPa NNE 1 mph /  1.6 km/h 2 mph /  3.2 km/h 66 % 0 in /  0.0 mm
02:55 48 °F /  8.9 °C 37.2 °F /  2.9 °C 30.1 in /  1018.8 hPa Calm   2 mph /  3.2 km/h 66 % 0 in /  0.0 mm
03:05 48 °F /  8.9 °C 37.2 °F /  2.9 °C 30.1 in /  1018.8 hPa NW 1 mph /  1.6 km/h 2 mph /  3.2 km/h 66 % 0 in /  0.0 mm
03:25 48.2 °F /  9.0 °C 37.8 °F /  3.2 °C 30.2 in /  1020.9 hPa SW 1 mph /  1.6 km/h 3 mph /  4.8 km/h 67 % 0 in /  0.0 mm
03:35 48.9 °F /  9.4 °C 38.1 °F /  3.4 °C 30.2 in /  1020.9 hPa SW 1 mph /  1.6 km/h 1 mph /  1.6 km/h 66 % 0 in /  0.0 mm
03:45 49.6 °F /  9.8 °C 38.3 °F /  3.5 °C 30.2 in /  1020.9 hPa Calm     65 % 0 in /  0.0 mm
03:55 50.4 °F /  10.2 °C 38.7 °F /  3.7 °C 30.1 in /  1019.9 hPa NNW 1 mph /  1.6 km/h 3 mph /  4.8 km/h 64 % 0 in /  0.0 mm
04:05 50.9 °F /  10.5 °C 38.7 °F /  3.7 °C 30.1 in /  1019.9 hPa NNE 1 mph /  1.6 km/h 1 mph /  1.6 km/h 63 % 0 in /  0.0 mm
04:15 51.8 °F /  11.0 °C 39.6 °F /  4.2 °C 30.2 in /  1020.9 hPa NNW 1 mph /  1.6 km/h 2 mph /  3.2 km/h 63 % 0 in /  0.0 mm
04:35 53.2 °F /  11.8 °C 41.4 °F /  5.2 °C 30.2 in /  1020.9 hPa NNW 1 mph /  1.6 km/h 2 mph /  3.2 km/h 64 % 0 in /  0.0 mm
10:38 53.8 °F /  12.1 °C 41.9 °F /  5.5 °C 30.2 in /  1020.9 hPa Calm   1.4 mph /  2.3 km/h 64 % 0 in /  0.0 mm
10:39 54.3 °F /  12.4 °C 42.4 °F /  5.8 °C 30.2 in /  1020.9 hPa Calm   1.6 mph /  2.6 km/h 64 % 0 in /  0.0 mm
10:44 54.3 °F /  12.4 °C 42.4 °F /  5.8 °C 30.2 in /  1020.9 hPa SW 2.3 mph /  3.7 km/h 2.3 mph /  3.7 km/h 64 % 0 in /  0.0 mm
10:49 54.7 °F /  12.6 °C 42.3 °F /  5.7 °C 30.2 in /  1020.9 hPa SW 2.3 mph /  3.7 km/h   63 % 0 in /  0.0 mm
10:54 55.2 °F /  12.9 °C 42.8 °F /  6.0 °C 30.2 in /  1020.9 hPa SW 2.3 mph /  3.7 km/h 2.3 mph /  3.7 km/h 63 % 0 in /  0.0 mm
10:59 55.4 °F /  13.0 °C 43.3 °F /  6.3 °C 30.2 in /  1020.9 hPa SW 1.4 mph /  2.3 km/h 1.4 mph /  2.3 km/h 64 % 0 in /  0.0 mm
11:04 55.8 °F /  13.2 °C 43.9 °F /  6.6 °C 30.2 in /  1020.9 hPa SW 1.6 mph /  2.6 km/h 1.6 mph /  2.6 km/h 64 % 0 in /  0.0 mm
11:09 56.3 °F /  13.5 °C 43.9 °F /  6.6 °C 30.2 in /  1020.9 hPa Calm     63 % 0 in /  0.0 mm
11:14 56.3 °F /  13.5 °C 43.9 °F /  6.6 °C 30.2 in /  1020.9 hPa Calm     63 % 0 in /  0.0 mm
11:19 56.3 °F /  13.5 °C 43.3 °F /  6.3 °C 30.2 in /  1020.9 hPa Calm     62 % 0 in /  0.0 mm
11:24 57.4 °F /  14.1 °C 45 °F /  7.2 °C 30.2 in /  1020.9 hPa West 1.2 mph /  1.9 km/h 1.2 mph /  1.9 km/h 63 % 0 in /  0.0 mm
11:29 58.1 °F /  14.5 °C 45.7 °F /  7.6 °C 30.2 in /  1020.9 hPa NNE 1.2 mph /  1.9 km/h 1.2 mph /  1.9 km/h 63 % 0 in /  0.0 mm
11:34 58.5 °F /  14.7 °C 45.1 °F /  7.3 °C 30.2 in /  1020.9 hPa NNW 1.2 mph /  1.9 km/h 1.2 mph /  1.9 km/h 61 % 0 in /  0.0 mm
11:39 59.4 °F /  15.2 °C 45.5 °F /  7.5 °C 30.2 in /  1020.9 hPa West 1.2 mph /  1.9 km/h   60 % 0 in /  0.0 mm
11:44 59.9 °F /  15.5 °C 46 °F /  7.8 °C 30.2 in /  1020.9 hPa SW 1.2 mph /  1.9 km/h   60 % 0 in /  0.0 mm
11:49 60.6 °F /  15.9 °C 46.2 °F /  7.9 °C 30.2 in /  1020.9 hPa SW 1.2 mph /  1.9 km/h 1.2 mph /  1.9 km/h 59 % 0 in /  0.0 mm
11:54 61.2 °F /  16.2 °C 46.2 °F /  7.9 °C 30.2 in /  1020.9 hPa South 2.3 mph /  3.7 km/h 2.3 mph /  3.7 km/h 58 % 0 in /  0.0 mm
11:59 61.3 °F /  16.3 °C 46.4 °F /  8.0 °C 30.2 in /  1020.9 hPa SE 2.3 mph /  3.7 km/h 2.3 mph /  3.7 km/h 58 % 0 in /  0.0 mm
12:04 61.2 °F /  16.2 °C 45.9 °F /  7.7 °C 30.1 in /  1019.9 hPa ESE 2 mph /  3.2 km/h 2 mph /  3.2 km/h 57 % 0 in /  0.0 mm
12:09 61.9 °F /  16.6 °C 46.6 °F /  8.1 °C 30.1 in /  1019.9 hPa SSE 2.3 mph /  3.7 km/h 2.3 mph /  3.7 km/h 57 % 0 in /  0.0 mm
12:14 61.7 °F /  16.5 °C 45.3 °F /  7.4 °C 30.1 in /  1019.9 hPa SE 3.5 mph /  5.6 km/h 3.5 mph /  5.6 km/h 55 % 0 in /  0.0 mm
12:19 61.9 °F /  16.6 °C 46 °F /  7.8 °C 30.1 in /  1019.9 hPa ENE 3.5 mph /  5.6 km/h 3.5 mph /  5.6 km/h 56 % 0 in /  0.0 mm
12:24 62.6 °F /  17.0 °C 46.8 °F /  8.2 °C 30.1 in /  1019.9 hPa SW 2.3 mph /  3.7 km/h 2.3 mph /  3.7 km/h 56 % 0 in /  0.0 mm
12:29 63.1 °F /  17.3 °C 47.1 °F /  8.4 °C 30.1 in /  1019.9 hPa SW 3.5 mph /  5.6 km/h 3.5 mph /  5.6 km/h 56 % 0 in /  0.0 mm
12:34 63.9 °F /  17.7 °C 47.5 °F /  8.6 °C 30.1 in /  1018.8 hPa South 2.3 mph /  3.7 km/h 2.3 mph /  3.7 km/h 55 % 0 in /  0.0 mm
12:39 64.4 °F /  18.0 °C 47.8 °F /  8.8 °C 30.1 in /  1018.8 hPa SSE 2.3 mph /  3.7 km/h 2.3 mph /  3.7 km/h 55 % 0 in /  0.0 mm
12:44 65.1 °F /  18.4 °C 48.6 °F /  9.2 °C 30.1 in /  1018.8 hPa ESE 2.3 mph /  3.7 km/h 2.3 mph /  3.7 km/h 55 % 0 in /  0.0 mm
12:49 65.5 °F /  18.6 °C 47.8 °F /  8.8 °C 30.1 in /  1019.9 hPa SE 3.1 mph /  5.0 km/h 3.1 mph /  5.0 km/h 53 % 0 in /  0.0 mm
12:54 64.8 °F /  18.2 °C 47.1 °F /  8.4 °C 30.1 in /  1019.9 hPa ENE 3.5 mph /  5.6 km/h 3.5 mph /  5.6 km/h 53 % 0 in /  0.0 mm
12:59 64.9 °F /  18.3 °C 47.5 °F /  8.6 °C 30.1 in /  1019.9 hPa SE 3.5 mph /  5.6 km/h 3.5 mph /  5.6 km/h 53 % 0 in /  0.0 mm
13:04 64.8 °F /  18.2 °C 47.1 °F /  8.4 °C 30.1 in /  1018.8 hPa NE 3.3 mph /  5.3 km/h 3.3 mph /  5.3 km/h 53 % 0 in /  0.0 mm
13:09 64.8 °F /  18.2 °C 47.1 °F /  8.4 °C 30.1 in /  1018.8 hPa ENE 4.6 mph /  7.4 km/h 4.6 mph /  7.4 km/h 53 % 0 in /  0.0 mm
13:14 65.1 °F /  18.4 °C 47.7 °F /  8.7 °C 30.1 in /  1018.8 hPa ENE 3.5 mph /  5.6 km/h 3.5 mph /  5.6 km/h 53 % 0 in /  0.0 mm
13:19 65.7 °F /  18.7 °C 48 °F /  8.9 °C 30.1 in /  1019.9 hPa ENE 2.6 mph /  4.2 km/h 2.6 mph /  4.2 km/h 53 % 0 in /  0.0 mm
13:24 66 °F /  18.9 °C 47.8 °F /  8.8 °C 30.1 in /  1019.9 hPa SE 2.6 mph /  4.2 km/h 2.6 mph /  4.2 km/h 52 % 0 in /  0.0 mm
13:29 66.4 °F /  19.1 °C 47.7 °F /  8.7 °C 30.1 in /  1019.9 hPa ESE 2.3 mph /  3.7 km/h 2.3 mph /  3.7 km/h 51 % 0 in /  0.0 mm
13:34 66.6 °F /  19.2 °C 47.3 °F /  8.5 °C 30.1 in /  1018.8 hPa East 3.5 mph /  5.6 km/h 3.5 mph /  5.6 km/h 50 % 0 in /  0.0 mm
13:39 66.9 °F /  19.4 °C 47.1 °F /  8.4 °C 30.1 in /  1018.8 hPa East 3.6 mph /  5.8 km/h 3.6 mph /  5.8 km/h 49 % 0 in /  0.0 mm
13:44 67.1 °F /  19.5 °C 47.8 °F /  8.8 °C 30.1 in /  1018.8 hPa ENE 2.4 mph /  3.9 km/h 2.4 mph /  3.9 km/h 50 % 0 in /  0.0 mm
13:49 67.3 °F /  19.6 °C 47.5 °F /  8.6 °C 30.1 in /  1018.8 hPa ESE 4 mph /  6.4 km/h 4 mph /  6.4 km/h 49 % 0 in /  0.0 mm
13:54 67.3 °F /  19.6 °C 47.5 °F /  8.6 °C 30.1 in /  1018.8 hPa ESE 3.5 mph /  5.6 km/h 3.5 mph /  5.6 km/h 49 % 0 in /  0.0 mm
13:59 67.6 °F /  19.8 °C 47.8 °F /  8.8 °C 30.1 in /  1018.8 hPa ESE 2.3 mph /  3.7 km/h 2.3 mph /  3.7 km/h 49 % 0 in /  0.0 mm
14:04 68 °F /  20.0 °C 48 °F /  8.9 °C 30.1 in /  1018.8 hPa NE 1.2 mph /  1.9 km/h   49 % 0 in /  0.0 mm
14:09 68 °F /  20.0 °C 48.7 °F /  9.3 °C 30.1 in /  1018.8 hPa WNW 3.5 mph /  5.6 km/h 3.5 mph /  5.6 km/h 50 % 0 in /  0.0 mm
14:14 68.4 °F /  20.2 °C 48.6 °F /  9.2 °C 30.1 in /  1018.8 hPa NNW 2.3 mph /  3.7 km/h 2.3 mph /  3.7 km/h 49 % 0 in /  0.0 mm
14:19 68.7 °F /  20.4 °C 48.2 °F /  9.0 °C 30.1 in /  1018.8 hPa SW 3.5 mph /  5.6 km/h 3.5 mph /  5.6 km/h 48 % 0 in /  0.0 mm
14:29 69.3 °F /  20.7 °C 48.2 °F /  9.0 °C 30.1 in /  1018.8 hPa WNW 4.6 mph /  7.4 km/h 4.6 mph /  7.4 km/h 47 % 0 in /  0.0 mm
14:34 69.6 °F /  20.9 °C 47.8 °F /  8.8 °C 30.1 in /  1018.8 hPa SW 3.5 mph /  5.6 km/h 3.5 mph /  5.6 km/h 46 % 0 in /  0.0 mm
14:39 69.8 °F /  21.0 °C 47.5 °F /  8.6 °C 30.1 in /  1018.8 hPa WNW 3.5 mph /  5.6 km/h 3.6 mph /  5.8 km/h 45 % 0 in /  0.0 mm
14:44 70 °F /  21.1 °C 47.7 °F /  8.7 °C 30.1 in /  1018.8 hPa SW 3.5 mph /  5.6 km/h 3.5 mph /  5.6 km/h 45 % 0 in /  0.0 mm
14:49 70.5 °F /  21.4 °C 47.5 °F /  8.6 °C 30.1 in /  1018.8 hPa SE 3.6 mph /  5.8 km/h 3.6 mph /  5.8 km/h 44 % 0 in /  0.0 mm
14:54 70.9 °F /  21.6 °C 47.3 °F /  8.5 °C 30.1 in /  1018.8 hPa NNW 3.5 mph /  5.6 km/h 3.5 mph /  5.6 km/h 43 % 0 in /  0.0 mm
14:59 70.9 °F /  21.6 °C 47.3 °F /  8.5 °C 30.1 in /  1018.8 hPa NNW 5.8 mph /  9.3 km/h 5.8 mph /  9.3 km/h 43 % 0 in /  0.0 mm
15:04 71.1 °F /  21.7 °C 47.5 °F /  8.6 °C 30.1 in /  1018.8 hPa West 6.9 mph /  11.1 km/h 6.9 mph /  11.1 km/h 43 % 0 in /  0.0 mm
15:09 70.3 °F /  21.3 °C 46.2 °F /  7.9 °C 30.1 in /  1018.8 hPa WNW 3.3 mph /  5.3 km/h 3.3 mph /  5.3 km/h 42 % 0 in /  0.0 mm
15:14 70 °F /  21.1 °C 45.9 °F /  7.7 °C 30.1 in /  1018.8 hPa West 4.6 mph /  7.4 km/h 4.6 mph /  7.4 km/h 42 % 0 in /  0.0 mm
15:19 69.8 °F /  21.0 °C 45 °F /  7.2 °C 30.1 in /  1018.8 hPa NW 2.9 mph /  4.7 km/h 2.9 mph /  4.7 km/h 41 % 0 in /  0.0 mm
15:24 69.6 °F /  20.9 °C 45.5 °F /  7.5 °C 30.1 in /  1018.8 hPa NW 2.3 mph /  3.7 km/h 2.3 mph /  3.7 km/h 42 % 0 in /  0.0 mm
15:29 69.6 °F /  20.9 °C 45.5 °F /  7.5 °C 30.1 in /  1018.8 hPa West 2.3 mph /  3.7 km/h 2.3 mph /  3.7 km/h 42 % 0 in /  0.0 mm
15:34 69.4 °F /  20.8 °C 44.8 °F /  7.1 °C 30.1 in /  1018.8 hPa SW 2.3 mph /  3.7 km/h 2.3 mph /  3.7 km/h 41 % 0 in /  0.0 mm
15:39 69.3 °F /  20.7 °C 45.1 °F /  7.3 °C 30.1 in /  1018.8 hPa West 3.5 mph /  5.6 km/h 3.5 mph /  5.6 km/h 42 % 0 in /  0.0 mm
15:44 69.1 °F /  20.6 °C 44.4 °F /  6.9 °C 30.1 in /  1018.8 hPa WNW 2.3 mph /  3.7 km/h 2.3 mph /  3.7 km/h 41 % 0 in /  0.0 mm
15:49 68.9 °F /  20.5 °C 45 °F /  7.2 °C 30.1 in /  1018.8 hPa WSW 3.5 mph /  5.6 km/h 3.5 mph /  5.6 km/h 42 % 0 in /  0.0 mm
15:54 68.7 °F /  20.4 °C 44.1 °F /  6.7 °C 30.1 in /  1018.8 hPa WNW 2.3 mph /  3.7 km/h 2.3 mph /  3.7 km/h 41 % 0 in /  0.0 mm
15:59 68.4 °F /  20.2 °C 43.7 °F /  6.5 °C 30.1 in /  1018.8 hPa WNW 3.5 mph /  5.6 km/h 3.5 mph /  5.6 km/h 41 % 0 in /  0.0 mm
16:04 68 °F /  20.0 °C 43.3 °F /  6.3 °C 30.1 in /  1018.8 hPa West 3.5 mph /  5.6 km/h 3.5 mph /  5.6 km/h 41 % 0 in /  0.0 mm
16:09 68 °F /  20.0 °C 43.3 °F /  6.3 °C 30.1 in /  1018.8 hPa West 3.5 mph /  5.6 km/h 3.5 mph /  5.6 km/h 41 % 0 in /  0.0 mm
16:14 67.6 °F /  19.8 °C 43.7 °F /  6.5 °C 30.1 in /  1018.8 hPa WSW 4.6 mph /  7.4 km/h 4.6 mph /  7.4 km/h 42 % 0 in /  0.0 mm
16:19 67.5 °F /  19.7 °C 43.5 °F /  6.4 °C 30.1 in /  1018.8 hPa West 4.6 mph /  7.4 km/h 4.6 mph /  7.4 km/h 42 % 0 in /  0.0 mm
16:24 67.3 °F /  19.6 °C 43.3 °F /  6.3 °C 30.1 in /  1018.8 hPa SW 2.6 mph /  4.2 km/h 2.6 mph /  4.2 km/h 42 % 0 in /  0.0 mm
16:29 67.1 °F /  19.5 °C 43.2 °F /  6.2 °C 30.1 in /  1018.8 hPa West 2.6 mph /  4.2 km/h 2.6 mph /  4.2 km/h 42 % 0 in /  0.0 mm
16:34 67.1 °F /  19.5 °C 43.2 °F /  6.2 °C 30.1 in /  1018.8 hPa West 2.3 mph /  3.7 km/h 2.3 mph /  3.7 km/h 42 % 0 in /  0.0 mm
16:39 67.3 °F /  19.6 °C 43.3 °F /  6.3 °C 30.1 in /  1018.8 hPa WNW 3.5 mph /  5.6 km/h 3.5 mph /  5.6 km/h 42 % 0 in /  0.0 mm
16:44 67.5 °F /  19.7 °C 43.5 °F /  6.4 °C 30.1 in /  1018.8 hPa WSW 6.2 mph /  10.0 km/h 6.2 mph /  10.0 km/h 42 % 0 in /  0.0 mm
16:49 67.3 °F /  19.6 °C 43.3 °F /  6.3 °C 30.1 in /  1018.8 hPa West 3.5 mph /  5.6 km/h 3.5 mph /  5.6 km/h 42 % 0 in /  0.0 mm
16:54 66.9 °F /  19.4 °C 43.2 °F /  6.2 °C 30.1 in /  1018.8 hPa West 3.3 mph /  5.3 km/h 3.3 mph /  5.3 km/h 42 % 0 in /  0.0 mm
17:00 66.7 °F /  19.3 °C 43 °F /  6.1 °C 30.1 in /  1018.8 hPa WSW 4.6 mph /  7.4 km/h 4.6 mph /  7.4 km/h 42 % 0 in /  0.0 mm
17:04 66.6 °F /  19.2 °C 42.6 °F /  5.9 °C 30.1 in /  1018.8 hPa West 2.3 mph /  3.7 km/h 2.3 mph /  3.7 km/h 42 % 0 in /  0.0 mm
17:09 66.4 °F /  19.1 °C 42.6 °F /  5.9 °C 30.1 in /  1018.8 hPa West 2.3 mph /  3.7 km/h 2.3 mph /  3.7 km/h 42 % 0 in /  0.0 mm
17:14 66 °F /  18.9 °C 42.3 °F /  5.7 °C 30.1 in /  1018.8 hPa West 2.3 mph /  3.7 km/h 2.3 mph /  3.7 km/h 42 % 0 in /  0.0 mm
17:15 66 °F /  18.9 °C 42.3 °F /  5.7 °C 30.1 in /  1018.8 hPa West 2.3 mph /  3.7 km/h 2.3 mph /  3.7 km/h 42 % 0 in /  0.0 mm
17:20 66 °F /  18.9 °C 43 °F /  6.1 °C 30.1 in /  1018.8 hPa WSW 3.5 mph /  5.6 km/h 3.5 mph /  5.6 km/h 43 % 0 in /  0.0 mm
17:25 65.7 °F /  18.7 °C 41.9 °F /  5.5 °C 30.1 in /  1018.8 hPa West 1.2 mph /  1.9 km/h   42 % 0 in /  0.0 mm
17:30 65.5 °F /  18.6 °C 41.7 °F /  5.4 °C 30.1 in /  1018.8 hPa West 0.9 mph /  1.4 km/h 1.6 mph /  2.6 km/h 42 % 0 in /  0.0 mm
17:35 65.1 °F /  18.4 °C 42.1 °F /  5.6 °C 30.1 in /  1018.8 hPa NW 2.3 mph /  3.7 km/h 2.3 mph /  3.7 km/h 43 % 0 in /  0.0 mm
17:40 64.8 °F /  18.2 °C 41.2 °F /  5.1 °C 30.1 in /  1018.8 hPa NW 1.2 mph /  1.9 km/h   42 % 0 in /  0.0 mm
17:45 64.6 °F /  18.1 °C 41 °F /  5.0 °C 30.1 in /  1018.8 hPa WNW 1.2 mph /  1.9 km/h   42 % 0 in /  0.0 mm
17:47 64.4 °F /  18.0 °C 40.8 °F /  4.9 °C 30.1 in /  1018.8 hPa West 1.2 mph /  1.9 km/h 1.2 mph /  1.9 km/h 42 % 0 in /  0.0 mm
17:52 64.2 °F /  17.9 °C 41.2 °F /  5.1 °C 30.1 in /  1018.8 hPa WNW 2.3 mph /  3.7 km/h 2.3 mph /  3.7 km/h 43 % 0 in /  0.0 mm
17:57 64 °F /  17.8 °C 41.2 °F /  5.1 °C 30.1 in /  1018.8 hPa Calm     43 % 0 in /  0.0 mm
18:02 63.9 °F /  17.7 °C 40.8 °F /  4.9 °C 30.1 in /  1018.8 hPa WSW 2.4 mph /  3.9 km/h   43 % 0 in /  0.0 mm
18:07 63.7 °F /  17.6 °C 40.8 °F /  4.9 °C 30.1 in /  1018.8 hPa Calm     43 % 0 in /  0.0 mm
18:10 55.4 °F /  13.0 °C 37.6 °F /  3.1 °C 30.1 in /  1018.8 hPa Calm   2 mph /  3.2 km/h 51 % 0 in /  0.0 mm
18:12 63.7 °F /  17.6 °C 40.8 °F /  4.9 °C 30.1 in /  1018.8 hPa West 1.2 mph /  1.9 km/h   43 % 0 in /  0.0 mm
18:17 63.9 °F /  17.7 °C 40.8 °F /  4.9 °C 30.1 in /  1018.8 hPa SW 2.3 mph /  3.7 km/h 2.3 mph /  3.7 km/h 43 % 0 in /  0.0 mm
18:20 55 °F /  12.8 °C 37.2 °F /  2.9 °C 30.1 in /  1017.8 hPa Calm   2 mph /  3.2 km/h 51 % 0 in /  0.0 mm
18:22 63.7 °F /  17.6 °C 40.8 °F /  4.9 °C 30.1 in /  1018.8 hPa WSW 1.2 mph /  1.9 km/h 1.2 mph /  1.9 km/h 43 % 0 in /  0.0 mm
18:27 63.7 °F /  17.6 °C 40.8 °F /  4.9 °C 30.1 in /  1018.8 hPa WSW 3.5 mph /  5.6 km/h 3.5 mph /  5.6 km/h 43 % 0 in /  0.0 mm
18:30 54.7 °F /  12.6 °C 37.4 °F /  3.0 °C 30.1 in /  1017.8 hPa Calm   2 mph /  3.2 km/h 52 % 0 in /  0.0 mm
18:32 63.5 °F /  17.5 °C 40.6 °F /  4.8 °C 30.1 in /  1018.8 hPa West 1.2 mph /  1.9 km/h   43 % 0 in /  0.0 mm
18:37 62.8 °F /  17.1 °C 39.9 °F /  4.4 °C 30.1 in /  1018.8 hPa WSW 2.3 mph /  3.7 km/h 2.3 mph /  3.7 km/h 43 % 0 in /  0.0 mm
18:40 54.9 °F /  12.7 °C 37.6 °F /  3.1 °C 30.1 in /  1018.8 hPa Calm   2 mph /  3.2 km/h 52 % 0 in /  0.0 mm
18:42 62.2 °F /  16.8 °C 39.9 °F /  4.4 °C 30.1 in /  1018.8 hPa WSW 2.3 mph /  3.7 km/h 2.3 mph /  3.7 km/h 44 % 0 in /  0.0 mm
18:47 61.9 °F /  16.6 °C 39.7 °F /  4.3 °C 30.1 in /  1018.8 hPa SW 4 mph /  6.4 km/h 4 mph /  6.4 km/h 44 % 0 in /  0.0 mm
18:48 61.9 °F /  16.6 °C 39.7 °F /  4.3 °C 30.1 in /  1018.8 hPa WSW 4.6 mph /  7.4 km/h 4.6 mph /  7.4 km/h 44 % 0 in /  0.0 mm
18:50 55 °F /  12.8 °C 37.8 °F /  3.2 °C 30.1 in /  1017.8 hPa Calm   1 mph /  1.6 km/h 52 % 0 in /  0.0 mm
18:53 61.7 °F /  16.5 °C 40.1 °F /  4.5 °C 30.1 in /  1018.8 hPa SW 3.3 mph /  5.3 km/h 3.3 mph /  5.3 km/h 45 % 0 in /  0.0 mm
18:58 61.7 °F /  16.5 °C 40.1 °F /  4.5 °C 30.1 in /  1018.8 hPa WSW 2.3 mph /  3.7 km/h 2.3 mph /  3.7 km/h 45 % 0 in /  0.0 mm
19:00 54.9 °F /  12.7 °C 37.6 °F /  3.1 °C 30.1 in /  1017.8 hPa Calm     52 % 0 in /  0.0 mm
19:03 61.7 °F /  16.5 °C 40.1 °F /  4.5 °C 30.1 in /  1018.8 hPa West 2.4 mph /  3.9 km/h 2.4 mph /  3.9 km/h 45 % 0 in /  0.0 mm
19:08 61.7 °F /  16.5 °C 40.1 °F /  4.5 °C 30.1 in /  1018.8 hPa West 1.2 mph /  1.9 km/h 1.2 mph /  1.9 km/h 45 % 0 in /  0.0 mm
19:10 54.7 °F /  12.6 °C 37.4 °F /  3.0 °C 30.1 in /  1017.8 hPa NE 1 mph /  1.6 km/h 1 mph /  1.6 km/h 52 % 0 in /  0.0 mm
19:13 61.5 °F /  16.4 °C 39.9 °F /  4.4 °C 30.1 in /  1018.8 hPa WNW 1.2 mph /  1.9 km/h   45 % 0 in /  0.0 mm
19:18 61.3 °F /  16.3 °C 39.7 °F /  4.3 °C 30.1 in /  1018.8 hPa Calm     45 % 0 in /  0.0 mm
19:20 54.9 °F /  12.7 °C 37.9 °F /  3.3 °C 30.1 in /  1017.8 hPa Calm   2 mph /  3.2 km/h 53 % 0 in /  0.0 mm
19:23 61.2 °F /  16.2 °C 39.6 °F /  4.2 °C 30.1 in /  1018.8 hPa West 1.2 mph /  1.9 km/h   45 % 0 in /  0.0 mm
19:28 61.2 °F /  16.2 °C 39.6 °F /  4.2 °C 30.1 in /  1018.8 hPa West 2.3 mph /  3.7 km/h 2.3 mph /  3.7 km/h 45 % 0 in /  0.0 mm
19:30 54.9 °F /  12.7 °C 37.9 °F /  3.3 °C 30.1 in /  1017.8 hPa Calm   2 mph /  3.2 km/h 53 % 0 in /  0.0 mm
19:33 60.8 °F /  16.0 °C 39.4 °F /  4.1 °C 30.1 in /  1018.8 hPa SW 2.4 mph /  3.9 km/h 2.4 mph /  3.9 km/h 45 % 0 in /  0.0 mm
19:38 60.3 °F /  15.7 °C 38.8 °F /  3.8 °C 30.1 in /  1018.8 hPa SW 3.1 mph /  5.0 km/h 3.1 mph /  5.0 km/h 45 % 0 in /  0.0 mm
19:40 55 °F /  12.8 °C 38.1 °F /  3.4 °C 30 in /  1016.8 hPa Calm   2 mph /  3.2 km/h 53 % 0 in /  0.0 mm
19:43 59.5 °F /  15.3 °C 38.1 °F /  3.4 °C 30.1 in /  1018.8 hPa SW 3.6 mph /  5.8 km/h 3.6 mph /  5.8 km/h 45 % 0 in /  0.0 mm
19:48 59.5 °F /  15.3 °C 38.7 °F /  3.7 °C 30.1 in /  1019.9 hPa West 2.3 mph /  3.7 km/h 2.6 mph /  4.2 km/h 46 % 0 in /  0.0 mm
19:50 54.9 °F /  12.7 °C 37.9 °F /  3.3 °C 30 in /  1016.8 hPa Calm   1 mph /  1.6 km/h 53 % 0 in /  0.0 mm
19:53 60.4 °F /  15.8 °C 39.6 °F /  4.2 °C 30.1 in /  1019.9 hPa West 3.5 mph /  5.6 km/h 3.5 mph /  5.6 km/h 46 % 0 in /  0.0 mm
19:58 60.8 °F /  16.0 °C 39.9 °F /  4.4 °C 30.1 in /  1019.9 hPa West 2.6 mph /  4.2 km/h 2.6 mph /  4.2 km/h 46 % 0 in /  0.0 mm
20:00 54.7 °F /  12.6 °C 37.9 °F /  3.3 °C 30 in /  1016.8 hPa NW 1 mph /  1.6 km/h 2 mph /  3.2 km/h 53 % 0 in /  0.0 mm
20:03 61 °F /  16.1 °C 39.9 °F /  4.4 °C 30.1 in /  1019.9 hPa West 2.3 mph /  3.7 km/h 2.4 mph /  3.9 km/h 46 % 0 in /  0.0 mm
20:08 61 °F /  16.1 °C 39.9 °F /  4.4 °C 30.1 in /  1019.9 hPa West 2.4 mph /  3.9 km/h 2.4 mph /  3.9 km/h 46 % 0 in /  0.0 mm
20:10 54.7 °F /  12.6 °C 37.9 °F /  3.3 °C 30 in /  1016.8 hPa Calm   1 mph /  1.6 km/h 53 % 0 in /  0.0 mm
20:13 61.2 °F /  16.2 °C 40.3 °F /  4.6 °C 30.1 in /  1019.9 hPa WSW 3.5 mph /  5.6 km/h 3.5 mph /  5.6 km/h 46 % 0 in /  0.0 mm
20:18 61.2 °F /  16.2 °C 40.3 °F /  4.6 °C 30.1 in /  1019.9 hPa West 3.5 mph /  5.6 km/h 3.5 mph /  5.6 km/h 46 % 0 in /  0.0 mm
20:20 54 °F /  12.2 °C 37.2 °F /  2.9 °C 30.1 in /  1017.8 hPa NW 1 mph /  1.6 km/h 2 mph /  3.2 km/h 53 % 0 in /  0.0 mm
20:23 61.3 °F /  16.3 °C 40.5 °F /  4.7 °C 30.1 in /  1019.9 hPa WSW 3.5 mph /  5.6 km/h 3.5 mph /  5.6 km/h 46 % 0 in /  0.0 mm
20:28 61.3 °F /  16.3 °C 40.5 °F /  4.7 °C 30.1 in /  1019.9 hPa West 4.6 mph /  7.4 km/h 4.6 mph /  7.4 km/h 46 % 0 in /  0.0 mm
20:30 54 °F /  12.2 °C 37.2 °F /  2.9 °C 30.1 in /  1017.8 hPa West 1 mph /  1.6 km/h 2 mph /  3.2 km/h 53 % 0 in /  0.0 mm
20:33 61.3 °F /  16.3 °C 40.5 °F /  4.7 °C 30.1 in /  1018.8 hPa WSW 3.5 mph /  5.6 km/h 3.5 mph /  5.6 km/h 46 % 0 in /  0.0 mm
20:38 61.2 °F /  16.2 °C 40.3 °F /  4.6 °C 30.1 in /  1018.8 hPa West 4.6 mph /  7.4 km/h 4.6 mph /  7.4 km/h 46 % 0 in /  0.0 mm
20:40 54 °F /  12.2 °C 37.2 °F /  2.9 °C 30.1 in /  1017.8 hPa WNW 1 mph /  1.6 km/h 1 mph /  1.6 km/h 53 % 0 in /  0.0 mm
20:43 61.3 °F /  16.3 °C 40.5 °F /  4.7 °C 30.1 in /  1018.8 hPa West 4.6 mph /  7.4 km/h 4.6 mph /  7.4 km/h 46 % 0 in /  0.0 mm
20:48 61.2 °F /  16.2 °C 40.3 °F /  4.6 °C 30.1 in /  1019.9 hPa West 3.5 mph /  5.6 km/h 3.5 mph /  5.6 km/h 46 % 0 in /  0.0 mm
20:50 52.9 °F /  11.6 °C 36.7 °F /  2.6 °C 30.1 in /  1017.8 hPa WNW 1 mph /  1.6 km/h 2 mph /  3.2 km/h 54 % 0 in /  0.0 mm
20:53 61 °F /  16.1 °C 39.9 °F /  4.4 °C 30.1 in /  1019.9 hPa West 3.5 mph /  5.6 km/h 3.5 mph /  5.6 km/h 46 % 0 in /  0.0 mm
20:58 60.6 °F /  15.9 °C 39.7 °F /  4.3 °C 30.1 in /  1019.9 hPa SW 2.3 mph /  3.7 km/h 2.3 mph /  3.7 km/h 46 % 0 in /  0.0 mm
21:00 52.9 °F /  11.6 °C 36.7 °F /  2.6 °C 30.1 in /  1017.8 hPa Calm   1 mph /  1.6 km/h 54 % 0 in /  0.0 mm
21:03 60.4 °F /  15.8 °C 39.6 °F /  4.2 °C 30.1 in /  1019.9 hPa WSW 3.5 mph /  5.6 km/h 3.5 mph /  5.6 km/h 46 % 0 in /  0.0 mm
21:08 60.3 °F /  15.7 °C 39.4 °F /  4.1 °C 30.1 in /  1019.9 hPa WSW 3.5 mph /  5.6 km/h 3.5 mph /  5.6 km/h 46 % 0 in /  0.0 mm
21:10 53.1 °F /  11.7 °C 37.2 °F /  2.9 °C 30.1 in /  1017.8 hPa Calm     55 % 0 in /  0.0 mm
21:13 60.3 °F /  15.7 °C 39.4 °F /  4.1 °C 30.1 in /  1019.9 hPa West 3.3 mph /  5.3 km/h 3.3 mph /  5.3 km/h 46 % 0 in /  0.0 mm
21:19 60.3 °F /  15.7 °C 39.4 °F /  4.1 °C 30.1 in /  1019.9 hPa SW 2.3 mph /  3.7 km/h 2.3 mph /  3.7 km/h 46 % 0 in /  0.0 mm
21:20 53.1 °F /  11.7 °C 37.2 °F /  2.9 °C 30.1 in /  1017.8 hPa WSW 1 mph /  1.6 km/h 2 mph /  3.2 km/h 55 % 0 in /  0.0 mm
21:24 60.4 °F /  15.8 °C 39.6 °F /  4.2 °C 30.1 in /  1019.9 hPa West 2.3 mph /  3.7 km/h 2.3 mph /  3.7 km/h 46 % 0 in /  0.0 mm
21:29 59.5 °F /  15.3 °C 38.7 °F /  3.7 °C 30.1 in /  1019.9 hPa SW 3.5 mph /  5.6 km/h 3.5 mph /  5.6 km/h 46 % 0 in /  0.0 mm
21:30 52.3 °F /  11.3 °C 36.7 °F /  2.6 °C 30.1 in /  1017.8 hPa Calm   2 mph /  3.2 km/h 55 % 0 in /  0.0 mm
21:34 58.8 °F /  14.9 °C 38.1 °F /  3.4 °C 30.1 in /  1019.9 hPa WSW 2.3 mph /  3.7 km/h 2.3 mph /  3.7 km/h 46 % 0 in /  0.0 mm
21:39 58.8 °F /  14.9 °C 38.1 °F /  3.4 °C 30.1 in /  1019.9 hPa WSW 2.3 mph /  3.7 km/h 2.3 mph /  3.7 km/h 46 % 0 in /  0.0 mm
21:40 52.2 °F /  11.2 °C 36.9 °F /  2.7 °C 30.1 in /  1017.8 hPa NE 1 mph /  1.6 km/h 2 mph /  3.2 km/h 56 % 0 in /  0.0 mm
21:44 58.8 °F /  14.9 °C 38.1 °F /  3.4 °C 30.1 in /  1019.9 hPa SW 2.3 mph /  3.7 km/h 2.3 mph /  3.7 km/h 46 % 0 in /  0.0 mm
21:49 58.8 °F /  14.9 °C 38.1 °F /  3.4 °C 30.1 in /  1019.9 hPa SW 2.3 mph /  3.7 km/h 2.3 mph /  3.7 km/h 46 % 0 in /  0.0 mm
21:50 51.6 °F /  10.9 °C 36.3 °F /  2.4 °C 30 in /  1016.8 hPa Calm   1 mph /  1.6 km/h 56 % 0 in /  0.0 mm
21:54 58.6 °F /  14.8 °C 38.5 °F /  3.6 °C 30.1 in /  1019.9 hPa Calm     47 % 0 in /  0.0 mm
21:59 58.3 °F /  14.6 °C 38.1 °F /  3.4 °C 30.1 in /  1019.9 hPa Calm     47 % 0 in /  0.0 mm
22:00 51.3 °F /  10.7 °C 36.5 °F /  2.5 °C 30 in /  1016.8 hPa Calm     57 % 0 in /  0.0 mm
22:04 58.3 °F /  14.6 °C 38.1 °F /  3.4 °C 30.1 in /  1019.9 hPa SW 2.3 mph /  3.7 km/h 2.3 mph /  3.7 km/h 47 % 0 in /  0.0 mm
22:09 58.5 °F /  14.7 °C 38.3 °F /  3.5 °C 30.1 in /  1019.9 hPa WSW 2.3 mph /  3.7 km/h 2.3 mph /  3.7 km/h 47 % 0 in /  0.0 mm
22:10 51.1 °F /  10.6 °C 36.9 °F /  2.7 °C 30 in /  1016.8 hPa Calm   1 mph /  1.6 km/h 58 % 0 in /  0.0 mm
22:14 58.3 °F /  14.6 °C 38.1 °F /  3.4 °C 30.1 in /  1019.9 hPa Calm     47 % 0 in /  0.0 mm
22:19 58.5 °F /  14.7 °C 38.3 °F /  3.5 °C 30.1 in /  1019.9 hPa West 1.2 mph /  1.9 km/h 1.4 mph /  2.3 km/h 47 % 0 in /  0.0 mm
22:20 50.7 °F /  10.4 °C 36.9 °F /  2.7 °C 30 in /  1016.8 hPa North 1 mph /  1.6 km/h 1 mph /  1.6 km/h 59 % 0 in /  0.0 mm
22:24 59.2 °F /  15.1 °C 38.8 °F /  3.8 °C 30.1 in /  1019.9 hPa WSW 2.4 mph /  3.9 km/h 2.4 mph /  3.9 km/h 47 % 0 in /  0.0 mm
22:29 59.5 °F /  15.3 °C 39.4 °F /  4.1 °C 30.1 in /  1019.9 hPa WSW 2.3 mph /  3.7 km/h 2.4 mph /  3.9 km/h 47 % 0 in /  0.0 mm
22:30 50 °F /  10.0 °C 36.1 °F /  2.3 °C 30 in /  1016.8 hPa Calm   2 mph /  3.2 km/h 59 % 0 in /  0.0 mm
22:34 59.4 °F /  15.2 °C 39 °F /  3.9 °C 30.1 in /  1019.9 hPa WSW 1.6 mph /  2.6 km/h 1.6 mph /  2.6 km/h 47 % 0 in /  0.0 mm
22:39 59.2 °F /  15.1 °C 38.8 °F /  3.8 °C 30.1 in /  1019.9 hPa Calm     47 % 0 in /  0.0 mm
22:40 49.6 °F /  9.8 °C 36.3 °F /  2.4 °C 30 in /  1016.8 hPa Calm     60 % 0 in /  0.0 mm
22:44 58.8 °F /  14.9 °C 38.7 °F /  3.7 °C 30.1 in /  1019.9 hPa West 1.4 mph /  2.3 km/h   47 % 0 in /  0.0 mm
22:49 58.3 °F /  14.6 °C 38.7 °F /  3.7 °C 30.1 in /  1018.8 hPa Calm     48 % 0 in /  0.0 mm
22:50 49.3 °F /  9.6 °C 36 °F /  2.2 °C 30 in /  1016.8 hPa Calm     60 % 0 in /  0.0 mm
22:54 57.7 °F /  14.3 °C 38.1 °F /  3.4 °C 30.1 in /  1018.8 hPa Calm     48 % 0 in /  0.0 mm
22:59 57.2 °F /  14.0 °C 37.8 °F /  3.2 °C 30.1 in /  1018.8 hPa Calm     48 % 0 in /  0.0 mm
23:00 49.6 °F /  9.8 °C 36.3 °F /  2.4 °C 30 in /  1016.8 hPa SSW 1 mph /  1.6 km/h 1 mph /  1.6 km/h 60 % 0 in /  0.0 mm
23:04 56.7 °F /  13.7 °C 37.2 °F /  2.9 °C 30.1 in /  1018.8 hPa NNW 2.3 mph /  3.7 km/h 2.3 mph /  3.7 km/h 48 % 0 in /  0.0 mm
23:09 56.1 °F /  13.4 °C 37.2 °F /  2.9 °C 30.1 in /  1018.8 hPa NNW 2.3 mph /  3.7 km/h 2.3 mph /  3.7 km/h 49 % 0 in /  0.0 mm
23:10 49.3 °F /  9.6 °C 36.3 °F /  2.4 °C 30 in /  1016.8 hPa Calm   1 mph /  1.6 km/h 61 % 0 in /  0.0 mm
23:14 56.7 °F /  13.7 °C 37.8 °F /  3.2 °C 30.1 in /  1018.8 hPa NNW 1.2 mph /  1.9 km/h 1.2 mph /  1.9 km/h 49 % 0 in /  0.0 mm
23:19 56.8 °F /  13.8 °C 37.9 °F /  3.3 °C 30.1 in /  1018.8 hPa West 2.3 mph /  3.7 km/h 2.3 mph /  3.7 km/h 49 % 0 in /  0.0 mm
23:20 49.6 °F /  9.8 °C 37 °F /  2.8 °C 30 in /  1016.8 hPa Calm   1 mph /  1.6 km/h 62 % 0 in /  0.0 mm
23:24 56.1 °F /  13.4 °C 37.2 °F /  2.9 °C 30.1 in /  1018.8 hPa WSW 2.3 mph /  3.7 km/h 2.3 mph /  3.7 km/h 49 % 0 in /  0.0 mm
23:29 55.8 °F /  13.2 °C 36.9 °F /  2.7 °C 30.1 in /  1018.8 hPa NNW 2.3 mph /  3.7 km/h 2.3 mph /  3.7 km/h 49 % 0 in /  0.0 mm
23:30 49.3 °F /  9.6 °C 36.9 °F /  2.7 °C 30 in /  1016.8 hPa NW 1 mph /  1.6 km/h 2 mph /  3.2 km/h 62 % 0 in /  0.0 mm
23:34 55.8 °F /  13.2 °C 37.4 °F /  3.0 °C 30.1 in /  1018.8 hPa NNW 1.2 mph /  1.9 km/h 1.2 mph /  1.9 km/h 50 % 0 in /  0.0 mm
23:39 55.6 °F /  13.1 °C 37.2 °F /  2.9 °C 30.1 in /  1018.8 hPa Calm     50 % 0 in /  0.0 mm
23:40 49.3 °F /  9.6 °C 36.9 °F /  2.7 °C 30 in /  1015.8 hPa ENE 2 mph /  3.2 km/h 2 mph /  3.2 km/h 62 % 0 in /  0.0 mm
23:44 55.8 °F /  13.2 °C 37.4 °F /  3.0 °C 30.1 in /  1018.8 hPa Calm     50 % 0 in /  0.0 mm
23:49 55.8 °F /  13.2 °C 37.4 °F /  3.0 °C 30.1 in /  1018.8 hPa Calm     50 % 0 in /  0.0 mm
23:50 49.3 °F /  9.6 °C 37.2 °F /  2.9 °C 30 in /  1015.8 hPa Calm   1 mph /  1.6 km/h 63 % 0 in /  0.0 mm
23:54 55.8 °F /  13.2 °C 37.4 °F /  3.0 °C 30.1 in /  1018.8 hPa Calm     50 % 0 in /  0.0 mm
Meteo Sesrovires
Elogis d' Weather Underground - 3.75 mb

Guio original per  Jim McMurry - jmcmurry@mwt.net Adaptat per a la plantilla per  Wim van der Kuil - Leuven-Template.eu

Trobareu la nostra informacio del temps tambe a:

Weather Underground

AWEKAS